sensor_id;sensor_type;location;lat;lon;timestamp;P1;durP1;ratioP1;P2;durP2;ratioP2
59239;SDS011;45010;53.640;10.578;2022-08-02T00:01:21;4.15;;;0.95;;
59239;SDS011;45010;53.640;10.578;2022-08-02T00:04:21;3.38;;;1.00;;
59239;SDS011;45010;53.640;10.578;2022-08-02T00:07:22;3.25;;;0.80;;
59239;SDS011;45010;53.640;10.578;2022-08-02T00:10:22;2.17;;;0.82;;
59239;SDS011;45010;53.640;10.578;2022-08-02T00:13:22;1.98;;;0.70;;
59239;SDS011;45010;53.640;10.578;2022-08-02T00:16:23;2.92;;;0.98;;
59239;SDS011;45010;53.640;10.578;2022-08-02T00:19:23;3.38;;;0.98;;
59239;SDS011;45010;53.640;10.578;2022-08-02T00:22:23;1.65;;;0.90;;
59239;SDS011;45010;53.640;10.578;2022-08-02T00:25:24;2.13;;;0.70;;
59239;SDS011;45010;53.640;10.578;2022-08-02T00:28:24;2.83;;;0.90;;
59239;SDS011;45010;53.640;10.578;2022-08-02T00:31:25;2.72;;;0.90;;
59239;SDS011;45010;53.640;10.578;2022-08-02T00:34:25;3.17;;;0.73;;
59239;SDS011;45010;53.640;10.578;2022-08-02T00:37:26;2.10;;;0.90;;
59239;SDS011;45010;53.640;10.578;2022-08-02T00:40:26;3.25;;;0.95;;
59239;SDS011;45010;53.640;10.578;2022-08-02T00:43:26;4.90;;;0.82;;
59239;SDS011;45010;53.640;10.578;2022-08-02T00:46:27;3.10;;;0.80;;
59239;SDS011;45010;53.640;10.578;2022-08-02T00:49:27;3.78;;;0.90;;
59239;SDS011;45010;53.640;10.578;2022-08-02T00:52:27;2.17;;;0.90;;
59239;SDS011;45010;53.640;10.578;2022-08-02T00:55:28;2.03;;;0.77;;
59239;SDS011;45010;53.640;10.578;2022-08-02T00:58:28;2.95;;;0.80;;
59239;SDS011;45010;53.640;10.578;2022-08-02T01:01:29;2.22;;;0.82;;
59239;SDS011;45010;53.640;10.578;2022-08-02T01:04:38;2.55;;;0.85;;
59239;SDS011;45010;53.640;10.578;2022-08-02T01:07:38;2.88;;;0.65;;
59239;SDS011;45010;53.640;10.578;2022-08-02T01:10:39;1.90;;;0.65;;
59239;SDS011;45010;53.640;10.578;2022-08-02T01:13:40;1.95;;;0.70;;
59239;SDS011;45010;53.640;10.578;2022-08-02T01:16:51;2.08;;;0.85;;
59239;SDS011;45010;53.640;10.578;2022-08-02T01:20:15;1.75;;;0.77;;
59239;SDS011;45010;53.640;10.578;2022-08-02T01:30:27;3.72;;;0.73;;
59239;SDS011;45010;53.640;10.578;2022-08-02T01:33:31;0.80;;;0.60;;
59239;SDS011;45010;53.640;10.578;2022-08-02T01:36:39;2.08;;;0.70;;
59239;SDS011;45010;53.640;10.578;2022-08-02T01:39:43;2.05;;;0.80;;
59239;SDS011;45010;53.640;10.578;2022-08-02T01:42:46;2.45;;;0.60;;
59239;SDS011;45010;53.640;10.578;2022-08-02T01:45:48;2.05;;;0.65;;
59239;SDS011;45010;53.640;10.578;2022-08-02T01:48:51;2.05;;;0.65;;
59239;SDS011;45010;53.640;10.578;2022-08-02T01:51:53;2.30;;;0.63;;
59239;SDS011;45010;53.640;10.578;2022-08-02T01:55:18;1.85;;;0.73;;
59239;SDS011;45010;53.640;10.578;2022-08-02T01:58:22;2.33;;;0.80;;
59239;SDS011;45010;53.640;10.578;2022-08-02T02:01:26;1.48;;;0.70;;
59239;SDS011;45010;53.640;10.578;2022-08-02T02:04:28;2.55;;;0.80;;
59239;SDS011;45010;53.640;10.578;2022-08-02T02:07:31;2.20;;;0.98;;
59239;SDS011;45010;53.640;10.578;2022-08-02T02:10:34;1.95;;;0.73;;
59239;SDS011;45010;53.640;10.578;2022-08-02T02:13:37;2.05;;;0.90;;
59239;SDS011;45010;53.640;10.578;2022-08-02T02:16:41;0.85;;;0.50;;
59239;SDS011;45010;53.640;10.578;2022-08-02T02:19:45;2.60;;;0.82;;
59239;SDS011;45010;53.640;10.578;2022-08-02T02:22:46;1.55;;;0.60;;
59239;SDS011;45010;53.640;10.578;2022-08-02T02:25:47;0.85;;;0.50;;
59239;SDS011;45010;53.640;10.578;2022-08-02T02:28:48;2.30;;;1.08;;
59239;SDS011;45010;53.640;10.578;2022-08-02T02:31:51;2.42;;;1.10;;
59239;SDS011;45010;53.640;10.578;2022-08-02T02:34:54;2.30;;;0.68;;
59239;SDS011;45010;53.640;10.578;2022-08-02T02:37:55;1.30;;;0.65;;
59239;SDS011;45010;53.640;10.578;2022-08-02T02:41:00;1.75;;;0.60;;
59239;SDS011;45010;53.640;10.578;2022-08-02T02:44:03;1.60;;;0.70;;
59239;SDS011;45010;53.640;10.578;2022-08-02T02:47:05;2.08;;;0.73;;
59239;SDS011;45010;53.640;10.578;2022-08-02T02:50:08;1.42;;;0.50;;
59239;SDS011;45010;53.640;10.578;2022-08-02T02:53:10;1.60;;;0.63;;
59239;SDS011;45010;53.640;10.578;2022-08-02T02:56:12;2.10;;;0.70;;
59239;SDS011;45010;53.640;10.578;2022-08-02T02:59:14;2.92;;;0.93;;
59239;SDS011;45010;53.640;10.578;2022-08-02T03:02:15;1.42;;;0.63;;
59239;SDS011;45010;53.640;10.578;2022-08-02T03:05:16;1.95;;;0.70;;
59239;SDS011;45010;53.640;10.578;2022-08-02T03:08:17;1.45;;;0.60;;
59239;SDS011;45010;53.640;10.578;2022-08-02T03:11:17;1.67;;;0.60;;
59239;SDS011;45010;53.640;10.578;2022-08-02T03:14:18;1.95;;;0.70;;
59239;SDS011;45010;53.640;10.578;2022-08-02T03:17:19;1.13;;;0.55;;
59239;SDS011;45010;53.640;10.578;2022-08-02T03:20:19;1.60;;;0.52;;
59239;SDS011;45010;53.640;10.578;2022-08-02T03:23:21;1.63;;;0.73;;
59239;SDS011;45010;53.640;10.578;2022-08-02T03:26:21;1.35;;;0.70;;
59239;SDS011;45010;53.640;10.578;2022-08-02T03:29:22;1.85;;;0.77;;
59239;SDS011;45010;53.640;10.578;2022-08-02T03:32:22;3.05;;;0.68;;
59239;SDS011;45010;53.640;10.578;2022-08-02T03:35:24;1.65;;;0.82;;
59239;SDS011;45010;53.640;10.578;2022-08-02T03:38:25;2.10;;;0.70;;
59239;SDS011;45010;53.640;10.578;2022-08-02T03:41:25;0.57;;;0.50;;
59239;SDS011;45010;53.640;10.578;2022-08-02T03:44:28;1.15;;;0.60;;
59239;SDS011;45010;53.640;10.578;2022-08-02T03:47:29;1.85;;;0.80;;
59239;SDS011;45010;53.640;10.578;2022-08-02T03:50:32;1.40;;;0.77;;
59239;SDS011;45010;53.640;10.578;2022-08-02T03:53:32;1.80;;;0.70;;
59239;SDS011;45010;53.640;10.578;2022-08-02T03:56:33;2.03;;;0.70;;
59239;SDS011;45010;53.640;10.578;2022-08-02T03:59:43;1.85;;;0.73;;
59239;SDS011;45010;53.640;10.578;2022-08-02T04:02:45;0.90;;;0.60;;
59239;SDS011;45010;53.640;10.578;2022-08-02T04:05:46;1.23;;;0.60;;
59239;SDS011;45010;53.640;10.578;2022-08-02T04:08:46;2.80;;;0.75;;
59239;SDS011;45010;53.640;10.578;2022-08-02T04:11:46;1.55;;;0.50;;
59239;SDS011;45010;53.640;10.578;2022-08-02T04:14:47;1.80;;;0.77;;
59239;SDS011;45010;53.640;10.578;2022-08-02T04:17:50;2.95;;;0.75;;
59239;SDS011;45010;53.640;10.578;2022-08-02T04:20:53;1.92;;;0.90;;
59239;SDS011;45010;53.640;10.578;2022-08-02T04:23:54;1.83;;;0.70;;
59239;SDS011;45010;53.640;10.578;2022-08-02T04:26:56;1.67;;;0.60;;
59239;SDS011;45010;53.640;10.578;2022-08-02T04:29:58;0.88;;;0.50;;
59239;SDS011;45010;53.640;10.578;2022-08-02T04:32:59;0.98;;;0.73;;
59239;SDS011;45010;53.640;10.578;2022-08-02T04:36:00;1.27;;;0.52;;
59239;SDS011;45010;53.640;10.578;2022-08-02T04:39:01;1.55;;;0.70;;
59239;SDS011;45010;53.640;10.578;2022-08-02T04:42:01;0.45;;;0.25;;
59239;SDS011;45010;53.640;10.578;2022-08-02T04:45:02;1.35;;;0.70;;
59239;SDS011;45010;53.640;10.578;2022-08-02T04:48:04;0.93;;;0.45;;
59239;SDS011;45010;53.640;10.578;2022-08-02T04:51:04;2.28;;;0.60;;
59239;SDS011;45010;53.640;10.578;2022-08-02T04:54:05;0.98;;;0.60;;
59239;SDS011;45010;53.640;10.578;2022-08-02T04:57:06;1.38;;;0.50;;
59239;SDS011;45010;53.640;10.578;2022-08-02T05:00:27;2.58;;;0.80;;
59239;SDS011;45010;53.640;10.578;2022-08-02T05:03:28;1.00;;;0.50;;
59239;SDS011;45010;53.640;10.578;2022-08-02T05:06:28;2.08;;;0.57;;
59239;SDS011;45010;53.640;10.578;2022-08-02T05:09:28;1.95;;;0.73;;
59239;SDS011;45010;53.640;10.578;2022-08-02T05:12:28;1.90;;;0.60;;
59239;SDS011;45010;53.640;10.578;2022-08-02T05:15:29;1.77;;;0.57;;
59239;SDS011;45010;53.640;10.578;2022-08-02T05:18:29;0.93;;;0.50;;
59239;SDS011;45010;53.640;10.578;2022-08-02T05:21:30;0.85;;;0.52;;
59239;SDS011;45010;53.640;10.578;2022-08-02T05:24:30;1.58;;;0.50;;
59239;SDS011;45010;53.640;10.578;2022-08-02T05:27:31;1.70;;;0.73;;
59239;SDS011;45010;53.640;10.578;2022-08-02T05:30:32;1.05;;;0.60;;
59239;SDS011;45010;53.640;10.578;2022-08-02T05:33:32;0.95;;;0.60;;
59239;SDS011;45010;53.640;10.578;2022-08-02T05:36:32;3.00;;;0.80;;
59239;SDS011;45010;53.640;10.578;2022-08-02T05:39:33;1.08;;;0.57;;
59239;SDS011;45010;53.640;10.578;2022-08-02T05:42:33;1.30;;;0.60;;
59239;SDS011;45010;53.640;10.578;2022-08-02T05:45:33;1.23;;;0.70;;
59239;SDS011;45010;53.640;10.578;2022-08-02T05:48:34;2.53;;;1.00;;
59239;SDS011;45010;53.640;10.578;2022-08-02T05:51:35;3.38;;;0.90;;
59239;SDS011;45010;53.640;10.578;2022-08-02T06:00:48;7.05;;;1.30;;
59239;SDS011;45010;53.640;10.578;2022-08-02T06:03:51;3.75;;;1.20;;
59239;SDS011;45010;53.640;10.578;2022-08-02T06:06:55;4.80;;;1.10;;
59239;SDS011;45010;53.640;10.578;2022-08-02T06:10:05;2.60;;;1.33;;
59239;SDS011;45010;53.640;10.578;2022-08-02T06:13:07;7.15;;;1.13;;
59239;SDS011;45010;53.640;10.578;2022-08-02T06:16:10;4.35;;;1.42;;
59239;SDS011;45010;53.640;10.578;2022-08-02T06:19:11;4.22;;;1.20;;
59239;SDS011;45010;53.640;10.578;2022-08-02T06:22:12;5.18;;;1.20;;
59239;SDS011;45010;53.640;10.578;2022-08-02T06:25:15;6.13;;;1.60;;
59239;SDS011;45010;53.640;10.578;2022-08-02T06:28:15;4.80;;;1.25;;
59239;SDS011;45010;53.640;10.578;2022-08-02T06:31:18;5.75;;;1.42;;
59239;SDS011;45010;53.640;10.578;2022-08-02T06:34:18;3.30;;;1.08;;
59239;SDS011;45010;53.640;10.578;2022-08-02T06:37:26;7.35;;;1.17;;
59239;SDS011;45010;53.640;10.578;2022-08-02T06:43:48;6.57;;;1.40;;
59239;SDS011;45010;53.640;10.578;2022-08-02T06:46:52;5.78;;;1.40;;
59239;SDS011;45010;53.640;10.578;2022-08-02T06:49:53;4.03;;;1.25;;
59239;SDS011;45010;53.640;10.578;2022-08-02T06:52:55;5.13;;;1.38;;
59239;SDS011;45010;53.640;10.578;2022-08-02T06:55:56;5.07;;;1.35;;
59239;SDS011;45010;53.640;10.578;2022-08-02T06:58:57;3.88;;;1.20;;
59239;SDS011;45010;53.640;10.578;2022-08-02T07:01:57;6.07;;;1.35;;
59239;SDS011;45010;53.640;10.578;2022-08-02T07:04:58;6.20;;;1.23;;
59239;SDS011;45010;53.640;10.578;2022-08-02T07:08:00;5.68;;;1.27;;
59239;SDS011;45010;53.640;10.578;2022-08-02T07:11:01;3.60;;;1.02;;
59239;SDS011;45010;53.640;10.578;2022-08-02T07:14:01;4.78;;;1.45;;
59239;SDS011;45010;53.640;10.578;2022-08-02T07:17:02;5.07;;;1.35;;
59239;SDS011;45010;53.640;10.578;2022-08-02T07:20:02;7.32;;;1.73;;
59239;SDS011;45010;53.640;10.578;2022-08-02T07:23:03;4.53;;;1.30;;
59239;SDS011;45010;53.640;10.578;2022-08-02T07:26:04;6.88;;;1.33;;
59239;SDS011;45010;53.640;10.578;2022-08-02T07:29:04;3.97;;;1.15;;
59239;SDS011;45010;53.640;10.578;2022-08-02T07:32:05;9.07;;;2.53;;
59239;SDS011;45010;53.640;10.578;2022-08-02T07:35:05;3.42;;;1.00;;
59239;SDS011;45010;53.640;10.578;2022-08-02T07:38:06;4.75;;;1.27;;
59239;SDS011;45010;53.640;10.578;2022-08-02T07:41:07;8.25;;;1.10;;
59239;SDS011;45010;53.640;10.578;2022-08-02T07:44:07;4.05;;;1.27;;
59239;SDS011;45010;53.640;10.578;2022-08-02T07:47:07;5.75;;;1.00;;
59239;SDS011;45010;53.640;10.578;2022-08-02T07:50:08;7.80;;;1.27;;
59239;SDS011;45010;53.640;10.578;2022-08-02T07:53:11;5.60;;;1.13;;
59239;SDS011;45010;53.640;10.578;2022-08-02T07:56:11;4.32;;;1.27;;
59239;SDS011;45010;53.640;10.578;2022-08-02T07:59:11;2.10;;;0.82;;
59239;SDS011;45010;53.640;10.578;2022-08-02T08:02:12;9.52;;;1.00;;
59239;SDS011;45010;53.640;10.578;2022-08-02T08:05:13;8.52;;;0.93;;
59239;SDS011;45010;53.640;10.578;2022-08-02T08:08:14;6.07;;;1.10;;
59239;SDS011;45010;53.640;10.578;2022-08-02T08:11:14;4.45;;;1.23;;
59239;SDS011;45010;53.640;10.578;2022-08-02T08:14:15;5.80;;;0.90;;
59239;SDS011;45010;53.640;10.578;2022-08-02T08:17:15;5.47;;;1.17;;
59239;SDS011;45010;53.640;10.578;2022-08-02T08:20:16;3.35;;;0.88;;
59239;SDS011;45010;53.640;10.578;2022-08-02T08:23:16;3.58;;;0.90;;
59239;SDS011;45010;53.640;10.578;2022-08-02T08:26:16;5.40;;;1.15;;
59239;SDS011;45010;53.640;10.578;2022-08-02T08:29:17;4.32;;;0.95;;
59239;SDS011;45010;53.640;10.578;2022-08-02T08:32:18;3.55;;;0.90;;
59239;SDS011;45010;53.640;10.578;2022-08-02T08:35:18;4.88;;;1.10;;
59239;SDS011;45010;53.640;10.578;2022-08-02T08:38:18;5.57;;;1.08;;
59239;SDS011;45010;53.640;10.578;2022-08-02T08:41:20;2.95;;;1.10;;
59239;SDS011;45010;53.640;10.578;2022-08-02T08:44:20;3.03;;;0.85;;
59239;SDS011;45010;53.640;10.578;2022-08-02T08:47:20;1.92;;;0.93;;
59239;SDS011;45010;53.640;10.578;2022-08-02T08:50:23;5.38;;;1.30;;
59239;SDS011;45010;53.640;10.578;2022-08-02T08:53:24;2.97;;;1.17;;
59239;SDS011;45010;53.640;10.578;2022-08-02T08:56:32;3.42;;;1.17;;
59239;SDS011;45010;53.640;10.578;2022-08-02T08:59:34;3.78;;;1.02;;
59239;SDS011;45010;53.640;10.578;2022-08-02T09:02:35;3.45;;;1.00;;
59239;SDS011;45010;53.640;10.578;2022-08-02T09:05:39;2.53;;;1.08;;
59239;SDS011;45010;53.640;10.578;2022-08-02T09:08:40;3.28;;;1.08;;
59239;SDS011;45010;53.640;10.578;2022-08-02T09:11:41;4.65;;;1.00;;
59239;SDS011;45010;53.640;10.578;2022-08-02T09:14:41;4.72;;;0.90;;
59239;SDS011;45010;53.640;10.578;2022-08-02T09:17:51;4.88;;;1.05;;
59239;SDS011;45010;53.640;10.578;2022-08-02T09:20:56;3.05;;;0.88;;
59239;SDS011;45010;53.640;10.578;2022-08-02T09:23:58;3.25;;;0.70;;
59239;SDS011;45010;53.640;10.578;2022-08-02T09:26:58;4.65;;;0.80;;
59239;SDS011;45010;53.640;10.578;2022-08-02T09:29:59;3.17;;;1.10;;
59239;SDS011;45010;53.640;10.578;2022-08-02T09:32:59;2.58;;;0.80;;
59239;SDS011;45010;53.640;10.578;2022-08-02T09:36:01;4.32;;;0.90;;
59239;SDS011;45010;53.640;10.578;2022-08-02T09:39:05;3.75;;;0.90;;
59239;SDS011;45010;53.640;10.578;2022-08-02T09:42:06;3.30;;;0.98;;
59239;SDS011;45010;53.640;10.578;2022-08-02T09:45:09;2.22;;;0.80;;
59239;SDS011;45010;53.640;10.578;2022-08-02T09:48:09;3.05;;;0.90;;
59239;SDS011;45010;53.640;10.578;2022-08-02T09:51:10;4.95;;;1.30;;
59239;SDS011;45010;53.640;10.578;2022-08-02T09:54:15;3.05;;;0.95;;
59239;SDS011;45010;53.640;10.578;2022-08-02T09:57:23;2.92;;;0.95;;
59239;SDS011;45010;53.640;10.578;2022-08-02T10:00:26;4.22;;;1.08;;
59239;SDS011;45010;53.640;10.578;2022-08-02T10:03:26;3.83;;;0.90;;
59239;SDS011;45010;53.640;10.578;2022-08-02T10:06:27;4.60;;;0.90;;
59239;SDS011;45010;53.640;10.578;2022-08-02T10:09:28;5.10;;;0.80;;
59239;SDS011;45010;53.640;10.578;2022-08-02T10:12:29;2.33;;;1.05;;
59239;SDS011;45010;53.640;10.578;2022-08-02T10:15:29;4.63;;;0.90;;
59239;SDS011;45010;53.640;10.578;2022-08-02T10:18:30;2.50;;;0.77;;
59239;SDS011;45010;53.640;10.578;2022-08-02T10:21:43;3.45;;;0.88;;
59239;SDS011;45010;53.640;10.578;2022-08-02T10:25:09;2.05;;;0.70;;
59239;SDS011;45010;53.640;10.578;2022-08-02T10:28:10;4.10;;;1.38;;
59239;SDS011;45010;53.640;10.578;2022-08-02T10:31:18;3.20;;;1.40;;
59239;SDS011;45010;53.640;10.578;2022-08-02T10:34:23;3.92;;;1.00;;
59239;SDS011;45010;53.640;10.578;2022-08-02T10:37:31;2.63;;;0.85;;
59239;SDS011;45010;53.640;10.578;2022-08-02T10:40:42;2.17;;;0.70;;
59239;SDS011;45010;53.640;10.578;2022-08-02T10:43:43;6.15;;;0.77;;
59239;SDS011;45010;53.640;10.578;2022-08-02T10:46:47;2.20;;;0.90;;
59239;SDS011;45010;53.640;10.578;2022-08-02T10:49:57;2.42;;;0.80;;
59239;SDS011;45010;53.640;10.578;2022-08-02T10:56:44;2.70;;;0.70;;
59239;SDS011;45010;53.640;10.578;2022-08-02T10:59:45;1.58;;;0.70;;
59239;SDS011;45010;53.640;10.578;2022-08-02T11:02:46;5.38;;;1.05;;
59239;SDS011;45010;53.640;10.578;2022-08-02T11:05:58;4.55;;;1.00;;
59239;SDS011;45010;53.640;10.578;2022-08-02T11:09:24;4.65;;;0.65;;
59239;SDS011;45010;53.640;10.578;2022-08-02T11:12:25;2.78;;;1.02;;
59239;SDS011;45010;53.640;10.578;2022-08-02T11:15:29;3.47;;;0.90;;
59239;SDS011;45010;53.640;10.578;2022-08-02T11:19:00;3.00;;;0.70;;
59239;SDS011;45010;53.640;10.578;2022-08-02T11:22:02;4.40;;;1.27;;
59239;SDS011;45010;53.640;10.578;2022-08-02T11:25:48;6.30;;;0.95;;
59239;SDS011;45010;53.640;10.578;2022-08-02T11:28:23;2.83;;;0.90;;
59239;SDS011;45010;53.640;10.578;2022-08-02T11:31:24;3.58;;;1.10;;
59239;SDS011;45010;53.640;10.578;2022-08-02T11:34:25;2.45;;;0.90;;
59239;SDS011;45010;53.640;10.578;2022-08-02T11:37:30;2.88;;;0.95;;
59239;SDS011;45010;53.640;10.578;2022-08-02T11:40:36;4.70;;;1.08;;
59239;SDS011;45010;53.640;10.578;2022-08-02T11:43:37;2.95;;;0.88;;
59239;SDS011;45010;53.640;10.578;2022-08-02T11:46:37;2.50;;;0.80;;
59239;SDS011;45010;53.640;10.578;2022-08-02T11:49:38;2.65;;;0.82;;
59239;SDS011;45010;53.640;10.578;2022-08-02T11:52:38;2.55;;;0.90;;
59239;SDS011;45010;53.640;10.578;2022-08-02T11:55:39;2.70;;;1.00;;
59239;SDS011;45010;53.640;10.578;2022-08-02T11:58:39;2.42;;;0.80;;
59239;SDS011;45010;53.640;10.578;2022-08-02T12:01:40;5.50;;;1.27;;
59239;SDS011;45010;53.640;10.578;2022-08-02T12:04:40;3.72;;;1.17;;
59239;SDS011;45010;53.640;10.578;2022-08-02T12:07:41;2.50;;;0.80;;
59239;SDS011;45010;53.640;10.578;2022-08-02T12:10:48;2.75;;;0.80;;
59239;SDS011;45010;53.640;10.578;2022-08-02T12:13:49;4.95;;;0.80;;
59239;SDS011;45010;53.640;10.578;2022-08-02T12:16:49;3.75;;;0.80;;
59239;SDS011;45010;53.640;10.578;2022-08-02T12:20:09;5.32;;;1.10;;
59239;SDS011;45010;53.640;10.578;2022-08-02T12:23:10;3.92;;;0.88;;
59239;SDS011;45010;53.640;10.578;2022-08-02T12:26:10;4.97;;;1.02;;
59239;SDS011;45010;53.640;10.578;2022-08-02T12:29:11;4.45;;;1.20;;
59239;SDS011;45010;53.640;10.578;2022-08-02T12:32:16;4.30;;;1.02;;
59239;SDS011;45010;53.640;10.578;2022-08-02T12:35:23;4.05;;;1.00;;
59239;SDS011;45010;53.640;10.578;2022-08-02T12:38:29;3.72;;;0.98;;
59239;SDS011;45010;53.640;10.578;2022-08-02T12:41:30;3.38;;;1.73;;
59239;SDS011;45010;53.640;10.578;2022-08-02T12:44:30;4.65;;;1.05;;
59239;SDS011;45010;53.640;10.578;2022-08-02T12:47:31;4.38;;;1.00;;
59239;SDS011;45010;53.640;10.578;2022-08-02T12:50:45;2.63;;;0.98;;
59239;SDS011;45010;53.640;10.578;2022-08-02T12:53:45;4.03;;;0.98;;
59239;SDS011;45010;53.640;10.578;2022-08-02T12:56:46;6.03;;;1.15;;
59239;SDS011;45010;53.640;10.578;2022-08-02T12:59:51;4.97;;;0.90;;
59239;SDS011;45010;53.640;10.578;2022-08-02T13:02:52;3.28;;;0.80;;
59239;SDS011;45010;53.640;10.578;2022-08-02T13:05:52;5.38;;;1.38;;
59239;SDS011;45010;53.640;10.578;2022-08-02T13:08:53;2.92;;;0.80;;
59239;SDS011;45010;53.640;10.578;2022-08-02T13:11:54;2.70;;;1.15;;
59239;SDS011;45010;53.640;10.578;2022-08-02T13:14:54;1.98;;;0.88;;
59239;SDS011;45010;53.640;10.578;2022-08-02T13:17:55;4.05;;;0.85;;
59239;SDS011;45010;53.640;10.578;2022-08-02T13:20:55;1.98;;;0.80;;
59239;SDS011;45010;53.640;10.578;2022-08-02T13:23:55;3.58;;;0.70;;
59239;SDS011;45010;53.640;10.578;2022-08-02T13:26:56;2.80;;;1.00;;
59239;SDS011;45010;53.640;10.578;2022-08-02T13:29:56;4.00;;;1.00;;
59239;SDS011;45010;53.640;10.578;2022-08-02T13:32:57;2.38;;;0.95;;
59239;SDS011;45010;53.640;10.578;2022-08-02T13:35:57;5.88;;;1.33;;
59239;SDS011;45010;53.640;10.578;2022-08-02T13:38:58;1.67;;;0.98;;
59239;SDS011;45010;53.640;10.578;2022-08-02T13:41:58;3.10;;;1.23;;
59239;SDS011;45010;53.640;10.578;2022-08-02T13:44:58;1.73;;;0.85;;
59239;SDS011;45010;53.640;10.578;2022-08-02T13:47:59;3.63;;;0.90;;
59239;SDS011;45010;53.640;10.578;2022-08-02T13:50:59;2.53;;;0.90;;
59239;SDS011;45010;53.640;10.578;2022-08-02T13:53:59;2.13;;;0.95;;
59239;SDS011;45010;53.640;10.578;2022-08-02T13:57:00;2.80;;;1.10;;
59239;SDS011;45010;53.640;10.578;2022-08-02T14:00:00;4.95;;;0.90;;
59239;SDS011;45010;53.640;10.578;2022-08-02T14:03:00;1.80;;;0.90;;
59239;SDS011;45010;53.640;10.578;2022-08-02T14:06:01;2.65;;;0.90;;
59239;SDS011;45010;53.640;10.578;2022-08-02T14:09:01;2.25;;;1.35;;
59239;SDS011;45010;53.640;10.578;2022-08-02T14:12:02;2.75;;;1.00;;
59239;SDS011;45010;53.640;10.578;2022-08-02T14:15:03;1.98;;;0.90;;
59239;SDS011;45010;53.640;10.578;2022-08-02T14:18:04;3.40;;;1.08;;
59239;SDS011;45010;53.640;10.578;2022-08-02T14:21:04;2.67;;;0.80;;
59239;SDS011;45010;53.640;10.578;2022-08-02T14:24:04;2.95;;;0.90;;
59239;SDS011;45010;53.640;10.578;2022-08-02T14:27:05;3.00;;;1.10;;
59239;SDS011;45010;53.640;10.578;2022-08-02T14:30:06;2.05;;;0.85;;
59239;SDS011;45010;53.640;10.578;2022-08-02T14:33:07;1.80;;;0.98;;
59239;SDS011;45010;53.640;10.578;2022-08-02T14:36:07;2.03;;;0.90;;
59239;SDS011;45010;53.640;10.578;2022-08-02T14:39:08;1.77;;;0.75;;
59239;SDS011;45010;53.640;10.578;2022-08-02T14:42:08;2.03;;;0.90;;
59239;SDS011;45010;53.640;10.578;2022-08-02T14:45:08;2.63;;;0.90;;
59239;SDS011;45010;53.640;10.578;2022-08-02T14:48:09;3.63;;;0.80;;
59239;SDS011;45010;53.640;10.578;2022-08-02T14:51:10;2.72;;;0.80;;
59239;SDS011;45010;53.640;10.578;2022-08-02T14:54:12;3.05;;;0.80;;
59239;SDS011;45010;53.640;10.578;2022-08-02T14:57:13;4.95;;;1.15;;
59239;SDS011;45010;53.640;10.578;2022-08-02T15:00:14;4.38;;;1.05;;
59239;SDS011;45010;53.640;10.578;2022-08-02T15:03:16;3.92;;;0.90;;
59239;SDS011;45010;53.640;10.578;2022-08-02T15:06:17;2.75;;;0.70;;
59239;SDS011;45010;53.640;10.578;2022-08-02T15:09:18;3.65;;;1.13;;
59239;SDS011;45010;53.640;10.578;2022-08-02T15:12:18;3.83;;;0.70;;
59239;SDS011;45010;53.640;10.578;2022-08-02T15:15:19;3.58;;;1.02;;
59239;SDS011;45010;53.640;10.578;2022-08-02T15:18:19;6.65;;;1.02;;
59239;SDS011;45010;53.640;10.578;2022-08-02T15:21:20;2.90;;;0.85;;
59239;SDS011;45010;53.640;10.578;2022-08-02T15:24:20;2.03;;;0.82;;
59239;SDS011;45010;53.640;10.578;2022-08-02T15:27:20;3.25;;;0.90;;
59239;SDS011;45010;53.640;10.578;2022-08-02T15:30:21;4.20;;;0.90;;
59239;SDS011;45010;53.640;10.578;2022-08-02T15:33:21;3.70;;;0.80;;
59239;SDS011;45010;53.640;10.578;2022-08-02T15:36:21;4.93;;;0.98;;
59239;SDS011;45010;53.640;10.578;2022-08-02T15:39:22;2.58;;;1.02;;
59239;SDS011;45010;53.640;10.578;2022-08-02T15:42:22;10.93;;;1.00;;
59239;SDS011;45010;53.640;10.578;2022-08-02T15:45:22;3.63;;;0.85;;
59239;SDS011;45010;53.640;10.578;2022-08-02T15:48:24;3.53;;;1.00;;
59239;SDS011;45010;53.640;10.578;2022-08-02T15:51:24;1.27;;;0.68;;
59239;SDS011;45010;53.640;10.578;2022-08-02T15:54:25;3.67;;;0.93;;
59239;SDS011;45010;53.640;10.578;2022-08-02T15:57:25;2.25;;;1.00;;
59239;SDS011;45010;53.640;10.578;2022-08-02T16:00:27;1.67;;;0.60;;
59239;SDS011;45010;53.640;10.578;2022-08-02T16:03:28;1.08;;;0.80;;
59239;SDS011;45010;53.640;10.578;2022-08-02T16:06:29;4.20;;;1.00;;
59239;SDS011;45010;53.640;10.578;2022-08-02T16:09:29;2.30;;;0.88;;
59239;SDS011;45010;53.640;10.578;2022-08-02T16:12:30;2.13;;;0.90;;
59239;SDS011;45010;53.640;10.578;2022-08-02T16:15:30;3.67;;;0.85;;
59239;SDS011;45010;53.640;10.578;2022-08-02T16:18:31;3.35;;;1.05;;
59239;SDS011;45010;53.640;10.578;2022-08-02T16:21:31;1.95;;;1.25;;
59239;SDS011;45010;53.640;10.578;2022-08-02T16:24:31;2.85;;;1.50;;
59239;SDS011;45010;53.640;10.578;2022-08-02T16:27:32;2.15;;;1.33;;
59239;SDS011;45010;53.640;10.578;2022-08-02T16:30:32;2.10;;;1.45;;
59239;SDS011;45010;53.640;10.578;2022-08-02T16:33:32;2.95;;;1.50;;
59239;SDS011;45010;53.640;10.578;2022-08-02T16:36:33;3.28;;;1.40;;
59239;SDS011;45010;53.640;10.578;2022-08-02T16:39:33;2.58;;;1.63;;
59239;SDS011;45010;53.640;10.578;2022-08-02T16:42:34;2.30;;;1.40;;
59239;SDS011;45010;53.640;10.578;2022-08-02T16:45:35;1.92;;;1.10;;
59239;SDS011;45010;53.640;10.578;2022-08-02T16:48:35;1.90;;;1.40;;
59239;SDS011;45010;53.640;10.578;2022-08-02T16:51:36;3.58;;;1.30;;
59239;SDS011;45010;53.640;10.578;2022-08-02T16:54:36;3.65;;;1.48;;
59239;SDS011;45010;53.640;10.578;2022-08-02T16:57:37;3.20;;;0.98;;
59239;SDS011;45010;53.640;10.578;2022-08-02T17:00:40;2.40;;;1.13;;
59239;SDS011;45010;53.640;10.578;2022-08-02T17:03:40;1.52;;;1.00;;
59239;SDS011;45010;53.640;10.578;2022-08-02T17:06:41;2.58;;;1.30;;
59239;SDS011;45010;53.640;10.578;2022-08-02T17:09:41;1.75;;;1.27;;
59239;SDS011;45010;53.640;10.578;2022-08-02T17:12:42;1.98;;;1.35;;
59239;SDS011;45010;53.640;10.578;2022-08-02T17:15:42;3.47;;;1.20;;
59239;SDS011;45010;53.640;10.578;2022-08-02T17:18:43;2.30;;;1.20;;
59239;SDS011;45010;53.640;10.578;2022-08-02T17:21:43;4.25;;;1.38;;
59239;SDS011;45010;53.640;10.578;2022-08-02T17:24:43;3.05;;;1.13;;
59239;SDS011;45010;53.640;10.578;2022-08-02T17:27:44;2.97;;;1.10;;
59239;SDS011;45010;53.640;10.578;2022-08-02T17:30:44;3.90;;;1.15;;
59239;SDS011;45010;53.640;10.578;2022-08-02T17:33:44;3.10;;;1.25;;
59239;SDS011;45010;53.640;10.578;2022-08-02T17:36:45;2.10;;;1.20;;
59239;SDS011;45010;53.640;10.578;2022-08-02T17:39:45;2.53;;;1.70;;
59239;SDS011;45010;53.640;10.578;2022-08-02T17:42:45;2.38;;;1.00;;
59239;SDS011;45010;53.640;10.578;2022-08-02T17:45:46;3.50;;;1.17;;
59239;SDS011;45010;53.640;10.578;2022-08-02T17:48:46;3.15;;;1.30;;
59239;SDS011;45010;53.640;10.578;2022-08-02T17:52:16;3.85;;;1.45;;
59239;SDS011;45010;53.640;10.578;2022-08-02T17:55:17;2.70;;;1.20;;
59239;SDS011;45010;53.640;10.578;2022-08-02T17:58:18;2.03;;;1.63;;
59239;SDS011;45010;53.640;10.578;2022-08-02T18:01:18;1.95;;;1.20;;
59239;SDS011;45010;53.640;10.578;2022-08-02T18:04:18;3.17;;;1.38;;
59239;SDS011;45010;53.640;10.578;2022-08-02T18:07:19;2.33;;;1.25;;
59239;SDS011;45010;53.640;10.578;2022-08-02T18:10:20;1.67;;;1.05;;
59239;SDS011;45010;53.640;10.578;2022-08-02T18:13:21;1.38;;;1.27;;
59239;SDS011;45010;53.640;10.578;2022-08-02T18:16:22;3.63;;;1.33;;
59239;SDS011;45010;53.640;10.578;2022-08-02T18:19:22;2.53;;;1.20;;